createdAt,value
2022-09-10T00:01:06.976Z,95465.47
2022-09-10T00:03:54.790Z,95465.13
2022-09-10T00:06:41.602Z,95469.44
2022-09-10T00:09:27.167Z,95467.16
2022-09-10T00:12:13.528Z,95457.00
2022-09-10T00:14:59.210Z,95449.16
2022-09-10T00:17:45.125Z,95455.50
2022-09-10T00:20:31.244Z,95454.34
2022-09-10T00:23:19.131Z,95454.75
2022-09-10T00:26:15.133Z,95455.50
2022-09-10T00:29:01.670Z,95455.50
2022-09-10T00:31:47.430Z,95448.44
2022-09-10T00:34:33.265Z,95438.63
2022-09-10T00:37:19.185Z,95419.50
2022-09-10T00:40:05.685Z,95412.44
2022-09-10T00:42:51.636Z,95424.66
2022-09-10T00:45:37.750Z,95426.25
2022-09-10T00:48:30.995Z,95438.34
2022-09-10T00:51:16.861Z,95440.66
2022-09-10T00:54:03.317Z,95454.75
2022-09-10T00:56:49.778Z,95443.81
2022-09-10T00:59:36.077Z,95449.28
2022-09-10T01:02:22.088Z,95469.59
2022-09-10T01:05:09.940Z,95476.25
2022-09-10T01:07:58.031Z,95473.50
2022-09-10T01:11:09.100Z,95462.56
2022-09-10T01:14:28.811Z,95449.22
2022-09-10T01:17:21.253Z,95462.56
2022-09-10T01:20:32.453Z,95449.84
2022-09-10T01:23:41.405Z,95457.78
2022-09-10T01:26:42.715Z,95446.84
2022-09-10T01:29:44.575Z,95417.91
2022-09-10T01:32:40.649Z,95421.78
2022-09-10T01:35:50.084Z,95431.94
2022-09-10T01:38:44.207Z,95442.53
2022-09-10T01:41:31.454Z,95444.38
2022-09-10T01:44:43.905Z,95444.38
2022-09-10T01:47:54.466Z,95445.53
2022-09-10T01:51:17.877Z,95452.94
2022-09-10T01:54:37.166Z,95443.22
2022-09-10T01:57:23.308Z,95449.94
2022-09-10T02:00:11.586Z,95438.19
2022-09-10T02:03:05.910Z,95433.59
2022-09-10T02:05:54.944Z,95431.28
2022-09-10T02:08:41.883Z,95429.00
2022-09-10T02:11:29.242Z,95429.00
2022-09-10T02:14:21.708Z,95428.13
2022-09-10T02:17:31.863Z,95443.13
2022-09-10T02:20:19.500Z,95434.47
2022-09-10T02:23:05.449Z,95449.84
2022-09-10T02:25:51.392Z,95455.66
2022-09-10T02:28:37.764Z,95447.47
2022-09-10T02:31:23.966Z,95443.94
2022-09-10T02:34:10.809Z,95453.25
2022-09-10T02:36:57.654Z,95450.88
2022-09-10T02:39:45.477Z,95460.22
2022-09-10T02:42:35.001Z,95460.22
2022-09-10T02:45:21.387Z,95463.34
2022-09-10T02:48:07.605Z,95466.44
2022-09-10T02:50:54.692Z,95455.50
2022-09-10T02:53:40.774Z,95459.03
2022-09-10T02:56:27.506Z,95464.13
2022-09-10T02:59:13.272Z,95453.63
2022-09-10T03:02:00.126Z,95436.84
2022-09-10T03:04:46.590Z,95431.03
2022-09-10T03:07:33.101Z,95413.91
2022-09-10T03:10:19.606Z,95411.19
2022-09-10T03:13:05.389Z,95415.06
2022-09-10T03:15:52.888Z,95418.97
2022-09-10T03:18:40.519Z,95411.44
2022-09-10T03:21:29.415Z,95424.00
2022-09-10T03:24:16.992Z,95429.00
2022-09-10T03:27:04.315Z,95419.63
2022-09-10T03:29:50.054Z,95425.09
2022-09-10T03:32:37.303Z,95431.72
2022-09-10T03:35:25.368Z,95438.34
2022-09-10T03:38:11.833Z,95421.94
2022-09-10T03:40:58.701Z,95422.31
2022-09-10T03:43:46.837Z,95406.25
2022-09-10T03:46:34.252Z,95412.13
2022-09-10T03:49:22.935Z,95401.19
2022-09-10T03:52:12.676Z,95409.84
2022-09-10T03:55:00.496Z,95402.78
2022-09-10T03:57:47.274Z,95407.91
2022-09-10T04:00:34.609Z,95399.38
2022-09-10T04:03:20.704Z,95398.22
2022-09-10T04:06:10.417Z,95400.16
2022-09-10T04:08:56.717Z,95393.88
2022-09-10T04:11:42.771Z,95389.22
2022-09-10T04:14:29.968Z,95394.31
2022-09-10T04:17:15.803Z,95397.06
2022-09-10T04:20:03.497Z,95382.69
2022-09-10T04:22:53.699Z,95380.34
2022-09-10T04:25:39.833Z,95379.19
2022-09-10T04:28:26.333Z,95384.66
2022-09-10T04:31:13.464Z,95386.25
2022-09-10T04:34:03.125Z,95379.19
2022-09-10T04:36:53.647Z,95395.63
2022-09-10T04:39:40.319Z,95405.78
2022-09-10T04:42:26.399Z,95410.03
2022-09-10T04:45:13.011Z,95410.44
2022-09-10T04:48:04.827Z,95413.19
2022-09-10T04:51:17.423Z,95412.03
2022-09-10T04:54:08.038Z,95415.91
2022-09-10T04:56:57.005Z,95418.28
2022-09-10T04:59:43.497Z,95426.16
2022-09-10T05:02:30.299Z,95420.69
2022-09-10T05:05:16.410Z,95425.44
2022-09-10T05:08:05.069Z,95430.91
2022-09-10T05:10:50.856Z,95432.06
2022-09-10T05:13:36.976Z,95440.72
2022-09-10T05:16:24.022Z,95438.78
2022-09-10T05:19:22.753Z,95439.25
2022-09-10T05:22:14.702Z,95443.22
2022-09-10T05:25:01.727Z,95449.22
2022-09-10T05:27:48.361Z,95450.06
2022-09-10T05:30:38.436Z,95425.88
2022-09-10T05:33:25.135Z,95425.59
2022-09-10T05:36:11.659Z,95425.59
2022-09-10T05:39:00.391Z,95428.47
2022-09-10T05:41:48.934Z,95434.38
2022-09-10T05:44:35.252Z,95423.69
2022-09-10T05:47:22.240Z,95438.25
2022-09-10T05:50:08.710Z,95429.25
2022-09-10T05:52:57.135Z,95439.78
2022-09-10T05:55:46.139Z,95425.28
2022-09-10T05:58:34.512Z,95433.06
2022-09-10T06:01:20.717Z,95438.91
2022-09-10T06:04:07.028Z,95442.38
2022-09-10T06:06:54.276Z,95453.69
2022-09-10T06:09:40.190Z,95443.53
2022-09-10T06:12:46.429Z,95442.38
2022-09-10T06:15:35.898Z,95436.97
2022-09-10T06:18:22.468Z,95453.59
2022-09-10T06:21:14.420Z,95446.75
2022-09-10T06:24:02.296Z,95443.84
2022-09-10T06:26:51.997Z,95440.09
2022-09-10T06:29:40.183Z,95448.22
2022-09-10T06:32:27.982Z,95453.47
2022-09-10T06:35:14.106Z,95450.84
2022-09-10T06:38:00.169Z,95452.91
2022-09-10T06:40:57.870Z,95454.16
2022-09-10T06:44:22.466Z,95446.00
2022-09-10T06:48:37.546Z,95429.56
2022-09-10T06:51:13.713Z,95440.31
2022-09-10T06:54:02.837Z,95437.25
2022-09-10T06:56:49.549Z,95446.38
2022-09-10T06:59:35.398Z,95462.53
2022-09-10T07:02:21.684Z,95461.81
2022-09-10T07:05:10.935Z,95462.69
2022-09-10T07:07:57.983Z,95459.16
2022-09-10T07:10:45.849Z,95452.59
2022-09-10T07:13:34.846Z,95433.44
2022-09-10T07:17:31.116Z,95437.88
2022-09-10T07:20:18.053Z,95434.44
2022-09-10T07:23:08.902Z,95440.38
2022-09-10T07:26:19.721Z,95442.91
2022-09-10T07:29:36.606Z,95458.00
2022-09-10T07:33:39.198Z,95469.16
2022-09-10T07:36:25.649Z,95469.66
2022-09-10T07:39:24.928Z,95478.75
2022-09-10T07:42:11.849Z,95476.81
2022-09-10T07:49:58.553Z,95465.03
2022-09-10T07:52:52.891Z,95471.69
2022-09-10T07:55:41.424Z,95473.38
2022-09-10T07:59:02.718Z,95465.91
2022-09-10T08:02:02.954Z,95464.38
2022-09-10T08:04:49.609Z,95457.72
2022-09-10T08:07:58.641Z,95462.84
2022-09-10T08:10:47.182Z,95460.91
2022-09-10T08:13:37.325Z,95466.47
2022-09-10T08:16:24.830Z,95457.88
2022-09-10T08:19:14.998Z,95454.81
2022-09-10T08:22:01.438Z,95454.13
2022-09-10T08:24:53.501Z,95449.53
2022-09-10T08:27:42.787Z,95448.91
2022-09-10T08:30:29.021Z,95449.81
2022-09-10T08:33:16.794Z,95453.13
2022-09-10T08:36:04.809Z,95459.53
2022-09-10T08:38:51.242Z,95452.94
2022-09-10T08:41:41.072Z,95455.38
2022-09-10T08:45:00.329Z,95461.34
2022-09-10T08:48:19.483Z,95468.84
2022-09-10T08:51:29.260Z,95463.41
2022-09-10T08:54:26.957Z,95467.00
2022-09-10T08:57:36.895Z,95457.59
2022-09-10T09:00:45.680Z,95456.88
2022-09-10T09:03:39.020Z,95464.00
2022-09-10T09:06:36.261Z,95456.97
2022-09-10T09:09:22.473Z,95460.16
2022-09-10T09:13:08.142Z,95450.72
2022-09-10T09:16:38.819Z,95442.06
2022-09-10T09:19:34.682Z,95443.69
2022-09-10T09:22:53.947Z,95439.00
2022-09-10T09:26:29.882Z,95441.81
2022-09-10T09:29:42.412Z,95437.09
2022-09-10T09:33:48.200Z,95430.41
2022-09-10T09:36:37.984Z,95428.03
2022-09-10T09:40:07.143Z,95421.75
2022-09-10T09:43:05.172Z,95432.00
2022-09-10T09:45:53.494Z,95427.28
2022-09-10T09:48:53.620Z,95423.72
2022-09-10T09:52:31.889Z,95420.94
2022-09-10T09:55:33.006Z,95418.56
2022-09-10T09:58:21.866Z,95406.72
2022-09-10T10:01:13.281Z,95407.50
2022-09-10T10:04:02.911Z,95409.06
2022-09-10T10:06:57.873Z,95423.25
2022-09-10T10:09:44.414Z,95426.38
2022-09-10T10:12:31.757Z,95426.69
2022-09-10T10:15:36.663Z,95408.06
2022-09-10T10:18:22.691Z,95415.13
2022-09-10T10:21:11.473Z,95397.63
2022-09-10T10:23:57.235Z,95406.25
2022-09-10T10:26:45.755Z,95401.84
2022-09-10T10:29:31.760Z,95397.47
2022-09-10T10:32:19.782Z,95395.03
2022-09-10T10:35:27.092Z,95392.97
2022-09-10T10:38:34.562Z,95383.41
2022-09-10T10:41:45.329Z,95385.34
2022-09-10T10:44:56.451Z,95380.59
2022-09-10T10:47:55.066Z,95376.69
2022-09-10T10:50:52.939Z,95367.19
2022-09-10T10:54:22.829Z,95358.91
2022-09-10T10:57:54.578Z,95359.28
2022-09-10T11:00:44.176Z,95369.25
2022-09-10T11:03:53.034Z,95360.16
2022-09-10T11:06:45.438Z,95357.28
2022-09-10T11:09:41.033Z,95350.22
2022-09-10T11:12:41.970Z,95350.53
2022-09-10T11:16:05.834Z,95350.91
2022-09-10T11:19:32.146Z,95343.38
2022-09-10T11:22:22.831Z,95341.88
2022-09-10T11:25:37.886Z,95340.25
2022-09-10T11:29:08.923Z,95335.53
2022-09-10T11:32:27.180Z,95332.06
2022-09-10T11:35:29.238Z,95331.53
2022-09-10T11:38:57.559Z,95329.91
2022-09-10T11:41:46.951Z,95322.91
2022-09-10T11:45:03.624Z,95321.94
2022-09-10T11:48:11.589Z,95319.50
2022-09-10T11:51:25.882Z,95322.28
2022-09-10T11:54:17.013Z,95315.06
2022-09-10T11:57:25.480Z,95312.41
2022-09-10T12:00:17.172Z,95310.97
2022-09-10T12:03:37.001Z,95310.31
2022-09-10T12:06:39.525Z,95300.81
2022-09-10T12:10:30.857Z,95302.72
2022-09-10T12:13:24.262Z,95298.53
2022-09-10T12:16:50.766Z,95293.66
2022-09-10T12:19:50.158Z,95290.72
2022-09-10T12:22:39.046Z,95285.66
2022-09-10T12:25:37.636Z,95278.97
2022-09-10T12:28:45.860Z,95281.03
2022-09-10T12:32:23.943Z,95271.16
2022-09-10T12:36:21.147Z,95263.63
2022-09-10T12:39:29.301Z,95261.88
2022-09-10T12:42:29.961Z,95246.66
2022-09-10T12:46:12.648Z,95253.25
2022-09-10T12:49:10.046Z,95241.47
2022-09-10T12:53:01.804Z,95230.00
2022-09-10T12:56:29.927Z,95219.69
2022-09-10T12:59:27.181Z,95221.19
2022-09-10T13:02:27.947Z,95219.00
2022-09-10T13:05:36.693Z,95212.72
2022-09-10T13:08:34.815Z,95216.44
2022-09-10T13:11:24.771Z,95213.25
2022-09-10T13:14:24.706Z,95199.44
2022-09-10T13:17:48.340Z,95199.22
2022-09-10T13:20:35.597Z,95201.44
2022-09-10T13:23:47.673Z,95202.94
2022-09-10T13:27:53.514Z,95196.41
2022-09-10T13:31:18.843Z,95194.03
2022-09-10T13:34:52.043Z,95196.47
2022-09-10T13:38:33.492Z,95191.59
2022-09-10T13:41:25.024Z,95187.44
2022-09-10T13:44:46.699Z,95188.94
2022-09-10T13:48:01.827Z,95170.22
2022-09-10T13:51:12.897Z,95182.75
2022-09-10T13:54:09.284Z,95175.34
2022-09-10T13:56:56.297Z,95169.53
2022-09-10T13:59:43.122Z,95156.59
2022-09-10T14:03:13.015Z,95159.31
2022-09-10T14:06:04.281Z,95154.47
2022-09-10T14:12:08.040Z,95160.75
2022-09-10T14:14:56.965Z,95164.91
2022-09-10T14:18:08.315Z,95154.28
2022-09-10T14:21:04.242Z,95136.50
2022-09-10T14:23:50.460Z,95140.19
2022-09-10T14:26:36.673Z,95140.19
2022-09-10T14:29:26.167Z,95141.81
2022-09-10T14:32:33.381Z,95139.16
2022-09-10T14:35:49.414Z,95124.81
2022-09-10T14:38:38.167Z,95129.53
2022-09-10T14:41:29.684Z,95124.50
2022-09-10T14:44:20.346Z,95124.75
2022-09-10T14:47:09.309Z,95125.88
2022-09-10T14:49:57.203Z,95126.97
2022-09-10T14:52:43.113Z,95115.63
2022-09-10T14:55:31.083Z,95117.22
2022-09-10T14:58:17.002Z,95117.06
2022-09-10T15:01:04.015Z,95135.19
2022-09-10T15:03:49.729Z,95124.03
2022-09-10T15:06:37.222Z,95120.00
2022-09-10T15:09:24.978Z,95125.31
2022-09-10T15:12:23.090Z,95133.59
2022-09-10T15:15:21.847Z,95133.69
2022-09-10T15:18:14.609Z,95130.13
2022-09-10T15:21:01.678Z,95134.84
2022-09-10T15:23:55.733Z,95131.50
2022-09-10T15:26:42.723Z,95133.03
2022-09-10T15:29:39.234Z,95136.06
2022-09-10T15:32:25.307Z,95136.41
2022-09-10T15:35:11.360Z,95137.63
2022-09-10T15:37:57.755Z,95145.06
2022-09-10T15:40:44.189Z,95142.22
2022-09-10T15:43:30.122Z,95150.53
2022-09-10T15:47:05.341Z,95144.56
2022-09-10T15:51:05.472Z,95141.66
2022-09-10T15:53:52.816Z,95149.31
2022-09-10T15:56:39.754Z,95155.28
2022-09-10T15:59:25.592Z,95162.53
2022-09-10T16:02:18.858Z,95166.31
2022-09-10T16:05:06.039Z,95161.75
2022-09-10T16:07:51.981Z,95170.19
2022-09-10T16:11:19.408Z,95163.88
2022-09-10T16:14:49.074Z,95161.38
2022-09-10T16:17:35.367Z,95152.91
2022-09-10T16:20:21.638Z,95170.31
2022-09-10T16:23:10.815Z,95168.63
2022-09-10T16:25:56.729Z,95162.81
2022-09-10T16:28:58.530Z,95182.44
2022-09-10T16:31:47.205Z,95182.75
2022-09-10T16:34:33.212Z,95196.88
2022-09-10T16:37:19.454Z,95201.09
2022-09-10T16:40:05.974Z,95196.94
2022-09-10T16:42:51.685Z,95198.59
2022-09-10T16:45:37.435Z,95215.19
2022-09-10T16:48:23.148Z,95215.50
2022-09-10T16:51:16.661Z,95214.19
2022-09-10T16:54:05.651Z,95197.09
2022-09-10T16:56:51.493Z,95207.50
2022-09-10T16:59:37.330Z,95216.34
2022-09-10T17:02:23.420Z,95211.69
2022-09-10T17:05:09.864Z,95218.84
2022-09-10T17:07:55.540Z,95222.88
2022-09-10T17:10:41.510Z,95213.09
2022-09-10T17:13:27.249Z,95227.72
2022-09-10T17:16:26.370Z,95235.22
2022-09-10T17:19:15.049Z,95241.19
2022-09-10T17:22:01.051Z,95239.59
2022-09-10T17:24:49.349Z,95243.16
2022-09-10T17:27:36.358Z,95246.34
2022-09-10T17:30:22.260Z,95249.09
2022-09-10T17:33:08.266Z,95247.53
2022-09-10T17:36:00.214Z,95253.09
2022-09-10T17:38:46.242Z,95258.59
2022-09-10T17:41:32.270Z,95257.03
2022-09-10T17:44:18.285Z,95264.91
2022-09-10T17:47:04.331Z,95271.59
2022-09-10T17:49:52.179Z,95273.16
2022-09-10T17:52:38.172Z,95284.56
2022-09-10T17:55:31.731Z,95284.56
2022-09-10T17:58:19.560Z,95297.13
2022-09-10T18:01:08.704Z,95298.69
2022-09-10T18:03:55.655Z,95298.69
2022-09-10T18:06:41.623Z,95312.84
2022-09-10T18:09:27.806Z,95306.94
2022-09-10T18:12:13.959Z,95309.69
2022-09-10T18:15:01.144Z,95331.75
2022-09-10T18:17:47.169Z,95327.78
2022-09-10T18:20:32.882Z,95335.66
2022-09-10T18:23:19.415Z,95337.25
2022-09-10T18:26:16.404Z,95343.50
2022-09-10T18:29:10.487Z,95349.44
2022-09-10T18:31:58.257Z,95355.34
2022-09-10T18:34:44.423Z,95352.59
2022-09-10T18:37:30.327Z,95358.47
2022-09-10T18:40:16.170Z,95363.59
2022-09-10T18:43:01.959Z,95370.28
2022-09-10T18:45:47.829Z,95373.44
2022-09-10T18:48:34.541Z,95373.44
2022-09-10T18:51:22.493Z,95374.63
2022-09-10T18:54:09.619Z,95379.34
2022-09-10T18:56:57.298Z,95380.91
2022-09-10T18:59:44.150Z,95397.81
2022-09-10T19:02:30.131Z,95397.03
2022-09-10T19:05:16.277Z,95400.56
2022-09-10T19:08:02.745Z,95400.16
2022-09-10T19:10:48.635Z,95397.78
2022-09-10T19:13:34.578Z,95398.50
2022-09-10T19:16:22.766Z,95407.53
2022-09-10T19:19:18.660Z,95409.44
2022-09-10T19:22:10.640Z,95408.25
2022-09-10T19:24:56.672Z,95407.84
2022-09-10T19:27:45.108Z,95409.41
2022-09-10T19:30:35.632Z,95411.72
2022-09-10T19:33:21.457Z,95406.19
2022-09-10T19:36:14.379Z,95410.88
2022-09-10T19:39:01.798Z,95398.25
2022-09-10T19:41:48.937Z,95412.00
2022-09-10T19:44:34.659Z,95401.38
2022-09-10T19:47:20.967Z,95407.63
2022-09-10T19:50:07.224Z,95402.84
2022-09-10T19:52:53.774Z,95410.72
2022-09-10T19:55:39.944Z,95404.41
2022-09-10T19:58:25.875Z,95411.50
2022-09-10T20:01:14.294Z,95407.50
2022-09-10T20:04:01.765Z,95414.59
2022-09-10T20:06:47.772Z,95424.41
2022-09-10T20:09:36.778Z,95421.63
2022-09-10T20:12:25.811Z,95420.44
2022-09-10T20:15:11.759Z,95409.38
2022-09-10T20:17:57.929Z,95407.38
2022-09-10T20:20:43.817Z,95397.16
2022-09-10T20:23:29.621Z,95399.47
2022-09-10T20:26:17.911Z,95401.78
2022-09-10T20:29:07.880Z,95418.25
2022-09-10T20:31:58.651Z,95419.00
2022-09-10T20:34:45.294Z,95420.06
2022-09-10T20:37:31.312Z,95416.47
2022-09-10T20:40:17.401Z,95419.50
2022-09-10T20:43:03.244Z,95424.91
2022-09-10T20:45:49.401Z,95429.53
2022-09-10T20:48:35.214Z,95427.94
2022-09-10T20:51:21.430Z,95416.00
2022-09-10T20:54:10.846Z,95429.00
2022-09-10T20:56:56.744Z,95437.13
2022-09-10T20:59:44.112Z,95440.63
2022-09-10T21:02:30.122Z,95443.72
2022-09-10T21:05:16.403Z,95424.81
2022-09-10T21:08:03.537Z,95432.19
2022-09-10T21:10:49.842Z,95432.91
2022-09-10T21:13:36.471Z,95434.88
2022-09-10T21:16:28.393Z,95428.88
2022-09-10T21:19:16.165Z,95431.94
2022-09-10T21:22:02.914Z,95431.00
2022-09-10T21:24:48.717Z,95426.16
2022-09-10T21:27:34.477Z,95433.94
2022-09-10T21:30:20.299Z,95434.28
2022-09-10T21:33:07.182Z,95436.94
2022-09-10T21:36:02.844Z,95438.38
2022-09-10T21:38:53.333Z,95432.78
2022-09-10T21:41:42.500Z,95433.88
2022-09-10T21:44:28.460Z,95440.41
2022-09-10T21:47:14.431Z,95451.75
2022-09-10T21:50:00.602Z,95450.53
2022-09-10T21:52:46.558Z,95439.81
2022-09-10T21:55:32.675Z,95436.53
2022-09-10T21:58:18.466Z,95439.28
2022-09-10T22:01:10.089Z,95448.66
2022-09-10T22:04:00.579Z,95455.72
2022-09-10T22:06:47.055Z,95454.16
2022-09-10T22:09:33.826Z,95455.66
2022-09-10T22:12:19.603Z,95450.53
2022-09-10T22:15:06.794Z,95459.16
2022-09-10T22:17:52.656Z,95460.16
2022-09-10T22:20:38.338Z,95466.50
2022-09-10T22:23:24.249Z,95466.88
2022-09-10T22:26:17.949Z,95456.19
2022-09-10T22:29:03.843Z,95458.53
2022-09-10T22:31:50.212Z,95455.38
2022-09-10T22:34:36.636Z,95463.16
2022-09-10T22:37:22.601Z,95463.88
2022-09-10T22:40:08.446Z,95469.34
2022-09-10T22:42:54.525Z,95464.63
2022-09-10T22:45:40.203Z,95465.34
2022-09-10T22:48:26.016Z,95471.63
2022-09-10T22:51:15.672Z,95467.66
2022-09-10T22:54:03.887Z,95470.75
2022-09-10T22:56:50.577Z,95473.81
2022-09-10T22:59:38.000Z,95474.97
2022-09-10T23:02:25.545Z,95466.69
2022-09-10T23:05:13.239Z,95465.91
2022-09-10T23:08:00.568Z,95457.97
2022-09-10T23:10:47.736Z,95446.16
2022-09-10T23:13:35.251Z,95459.13
2022-09-10T23:16:36.767Z,95453.94
2022-09-10T23:19:25.892Z,95451.22
2022-09-10T23:22:12.906Z,95450.78
2022-09-10T23:24:59.422Z,95445.22
2022-09-10T23:27:48.735Z,95436.53
2022-09-10T23:30:36.764Z,95438.81
2022-09-10T23:33:23.506Z,95433.50
2022-09-10T23:36:14.407Z,95450.00
2022-09-10T23:39:02.672Z,95439.34
2022-09-10T23:41:52.026Z,95437.69
2022-09-10T23:44:39.020Z,95440.72
2022-09-10T23:47:26.525Z,95446.91
2022-09-10T23:50:15.284Z,95442.09
2022-09-10T23:53:04.772Z,95442.00
2022-09-10T23:55:52.508Z,95439.13
2022-09-10T23:58:39.332Z,95433.94
